Time;durP1;ratioP1;P1;durP2;ratioP2;P2;SDS_P1;SDS_P2;PMS_P1;PMS_P2;Temp;Humidity;BMP_temperature;BMP_pressure;BME280_temperature;BME280_humidity;BME280_pressure;Samples;Min_cycle;Max_cycle;Signal;HPM_P1;HPM_P2
2023/08/17 09:26:41;;;;;;;16.85;13.05;;;27.90;99.90;;;;;;6175684;23;20160;-75
2023/08/17 09:29:36;;;;;;;17.35;13.98;;;28.00;99.90;;;;;;6210212;23;20005;-74
2023/08/17 09:32:07;;;;;;;15.02;13.63;;;27.90;99.90;;;;;;6205382;23;20004;-74
2023/08/17 09:34:35;;;;;;;16.77;13.52;;;28.00;99.90;;;;;;6209055;23;20004;-74
2023/08/17 09:37:04;;;;;;;17.92;14.73;;;28.00;99.90;;;;;;6209684;23;20075;-74
2023/08/17 09:39:31;;;;;;;15.57;13.95;;;28.00;99.90;;;;;;6208350;23;20007;-74
2023/08/17 09:41:57;;;;;;;16.42;14.35;;;28.10;99.90;;;;;;6208136;23;20000;-74
2023/08/17 09:44:22;;;;;;;17.15;15.10;;;28.00;99.90;;;;;;6209262;23;20288;-74
2023/08/17 09:46:48;;;;;;;15.20;13.80;;;28.10;99.90;;;;;;6206820;23;20372;-74
2023/08/17 09:49:14;;;;;;;16.58;14.77;;;28.10;99.90;;;;;;6208956;23;20005;-74
2023/08/17 09:51:46;;;;;;;18.50;14.45;;;28.10;99.90;;;;;;6206860;23;20472;-75
2023/08/17 09:54:19;;;;;;;;;;;28.10;99.90;;;;;;6206900;23;20387;-74
2023/08/17 09:56:51;;;;;;;13.85;12.65;;;28.20;99.90;;;;;;6206447;23;19906;-74
2023/08/17 09:59:17;;;;;;;16.85;15.10;;;28.30;99.90;;;;;;6208910;23;20124;-74
2023/08/17 10:01:43;;;;;;;19.52;13.88;;;28.30;99.90;;;;;;6208417;23;20036;-74
2023/08/17 10:04:11;;;;;;;19.35;13.45;;;28.40;99.90;;;;;;6209048;23;20009;-74
2023/08/17 10:06:41;;;;;;;16.23;14.60;;;28.40;99.90;;;;;;6208838;23;20004;-74
2023/08/17 10:09:08;;;;;;;17.88;13.88;;;28.40;99.90;;;;;;6208180;23;20020;-74
2023/08/17 10:11:37;;;;;;;15.82;14.27;;;28.40;99.90;;;;;;6209006;23;20080;-73
2023/08/17 10:14:21;;;;;;;17.77;13.82;;;28.40;99.90;;;;;;6207060;23;20004;-74
2023/08/17 10:16:54;;;;;;;14.63;13.32;;;28.40;99.90;;;;;;6209282;23;20451;-74
2023/08/17 10:19:37;;;;;;;14.25;12.85;;;28.40;99.90;;;;;;6206585;23;20009;-74
2023/08/17 10:22:12;;;;;;;14.82;13.30;;;28.40;99.90;;;;;;6208918;23;19996;-74
2023/08/17 10:24:39;;;;;;;14.85;13.32;;;28.40;99.90;;;;;;6208497;23;20077;-74
2023/08/17 10:27:06;;;;;;;15.15;13.43;;;28.50;99.90;;;;;;6208070;23;20475;-74
2023/08/17 10:29:33;;;;;;;15.88;13.38;;;28.50;99.90;;;;;;6207289;23;20005;-74
2023/08/17 10:32:01;;;;;;;15.20;13.70;;;28.50;99.90;;;;;;6207933;23;20000;-74
2023/08/17 10:34:27;;;;;;;14.27;12.68;;;28.50;99.90;;;;;;6207647;23;20008;-74
2023/08/17 10:36:57;;;;;;;14.77;12.60;;;28.50;99.90;;;;;;6208496;23;19996;-74
2023/08/17 10:39:28;;;;;;;13.18;11.98;;;28.60;99.90;;;;;;6205841;23;20011;-74
2023/08/17 10:41:55;;;;;;;14.10;12.77;;;28.60;99.90;;;;;;6208306;23;20032;-74
2023/08/17 10:44:42;;;;;;;13.30;12.02;;;28.60;99.90;;;;;;6208406;23;20005;-74
2023/08/17 10:47:32;;;;;;;14.45;12.20;;;28.60;99.90;;;;;;6207327;23;20008;-74
2023/08/17 10:50:06;;;;;;;16.60;13.13;;;28.70;99.90;;;;;;6207621;23;20008;-74
2023/08/17 10:52:39;;;;;;;14.43;13.02;;;28.70;99.90;;;;;;6207782;23;20004;-74
2023/08/17 10:55:11;;;;;;;15.95;12.48;;;28.70;99.90;;;;;;6207947;23;20007;-74
2023/08/17 10:57:38;;;;;;;13.27;11.93;;;28.70;99.90;;;;;;6209127;23;20420;-74
2023/08/17 11:00:17;;;;;;;12.70;11.50;;;28.70;99.90;;;;;;6207608;23;20004;-74
2023/08/17 11:02:44;;;;;;;11.65;10.65;;;28.80;99.90;;;;;;6207931;23;20242;-75
2023/08/17 11:05:12;;;;;;;11.38;10.32;;;28.80;99.90;;;;;;6206202;23;20028;-74
2023/08/17 11:07:43;;;;;;;18.05;10.15;;;28.90;99.90;;;;;;6207435;23;20088;-74
2023/08/17 11:10:21;;;;;;;15.63;10.75;;;29.00;99.90;;;;;;6206905;23;20039;-74
2023/08/17 11:12:46;;;;;;;10.93;9.93;;;29.00;99.90;;;;;;6208128;23;20001;-74
2023/08/17 11:15:12;;;;;;;15.63;10.57;;;29.00;99.90;;;;;;6207489;23;20004;-74
2023/08/17 11:17:38;;;;;;;12.80;11.00;;;29.10;99.90;;;;;;6209016;23;20011;-74
2023/08/17 11:20:04;;;;;;;13.38;10.30;;;29.20;99.90;;;;;;6207716;23;20107;-74
2023/08/17 11:22:30;;;;;;;11.85;10.85;;;29.40;99.90;;;;;;6207308;23;20000;-74
2023/08/17 11:24:57;;;;;;;13.73;12.45;;;29.60;99.90;;;;;;6206899;23;20005;-74
2023/08/17 11:27:24;;;;;;;13.07;11.88;;;29.60;99.90;;;;;;6207832;23;20347;-74
2023/08/17 11:29:49;;;;;;;14.13;12.13;;;29.70;99.90;;;;;;6206426;23;20015;-74
2023/08/17 11:32:18;;;;;;;13.57;12.35;;;29.60;99.90;;;;;;6208194;23;20386;-74
2023/08/17 11:34:44;;;;;;;12.52;11.32;;;29.60;99.90;;;;;;6207613;23;20005;-74
2023/08/17 11:37:11;;;;;;;13.73;12.23;;;29.70;99.90;;;;;;6208747;23;20030;-74
2023/08/17 11:39:37;;;;;;;17.48;12.90;;;29.60;99.90;;;;;;6207986;23;20075;-74
2023/08/17 11:42:04;;;;;;;13.68;12.25;;;29.80;99.90;;;;;;6207969;23;19996;-74
2023/08/17 11:44:29;;;;;;;14.38;11.77;;;29.80;99.90;;;;;;6208309;23;20011;-74
2023/08/17 11:46:55;;;;;;;16.60;12.15;;;29.80;99.90;;;;;;6208284;23;20071;-74
2023/08/17 11:49:23;;;;;;;12.93;11.63;;;29.90;99.90;;;;;;6209623;23;20008;-74
2023/08/17 11:51:51;;;;;;;13.70;12.35;;;30.00;99.90;;;;;;6210843;23;20032;-74
2023/08/17 11:54:16;;;;;;;12.85;10.93;;;30.10;99.90;;;;;;6207611;23;20016;-74
2023/08/17 11:56:42;;;;;;;12.55;11.43;;;30.20;99.90;;;;;;6209863;23;20009;-74
2023/08/17 11:59:11;;;;;;;11.30;10.20;;;30.40;99.90;;;;;;6210285;23;20012;-74
2023/08/17 12:01:37;;;;;;;13.80;10.93;;;30.60;99.90;;;;;;6209355;23;19996;-74
2023/08/17 12:04:06;;;;;;;12.73;11.48;;;30.70;99.90;;;;;;6209227;23;20009;-74
2023/08/17 12:06:32;;;;;;;11.88;10.73;;;30.70;99.90;;;;;;6210412;23;20032;-74
2023/08/17 12:08:58;;;;;;;12.77;9.98;;;30.80;99.90;;;;;;6209141;23;20024;-74
2023/08/17 12:11:25;;;;;;;12.65;10.73;;;30.90;99.90;;;;;;6209285;23;20336;-74
2023/08/17 12:13:52;;;;;;;12.57;10.65;;;30.90;99.90;;;;;;6209475;23;20464;-73
2023/08/17 12:16:22;;;;;;;15.05;11.50;;;31.00;99.90;;;;;;6207193;23;20063;-74
2023/08/17 12:18:49;;;;;;;13.73;11.90;;;31.00;99.90;;;;;;6210219;23;20447;-74
2023/08/17 12:21:14;;;;;;;11.93;10.38;;;31.10;99.90;;;;;;6207807;23;20001;-74
2023/08/17 12:23:43;;;;;;;15.23;11.80;;;31.20;99.90;;;;;;6209142;23;20205;-74
2023/08/17 12:26:09;;;;;;;19.35;11.70;;;31.40;99.90;;;;;;6207752;23;20008;-74
2023/08/17 12:28:34;;;;;;;13.85;12.20;;;31.40;99.90;;;;;;6209419;23;20067;-74
2023/08/17 12:31:02;;;;;;;15.63;11.73;;;31.40;99.90;;;;;;6208864;23;20000;-74
2023/08/17 12:33:28;;;;;;;12.88;11.73;;;31.40;99.90;;;;;;6208330;23;20328;-73
2023/08/17 12:35:55;;;;;;;15.88;11.20;;;31.50;99.90;;;;;;6207324;23;20036;-74
2023/08/17 12:38:21;;;;;;;12.75;11.45;;;31.70;99.90;;;;;;6208025;23;20313;-74
2023/08/17 12:40:47;;;;;;;14.02;11.75;;;31.80;99.90;;;;;;6208444;23;20000;-74
2023/08/17 12:43:12;;;;;;;12.45;11.45;;;31.80;99.90;;;;;;6208755;23;20012;-74
2023/08/17 12:45:38;;;;;;;17.90;11.60;;;31.70;99.90;;;;;;6209393;23;20087;-74
2023/08/17 12:48:04;;;;;;;13.45;11.82;;;31.90;99.90;;;;;;6209327;23;20084;-74
2023/08/17 12:50:30;;;;;;;11.57;10.57;;;31.90;99.90;;;;;;6209412;23;19996;-73
2023/08/17 12:52:55;;;;;;;14.88;10.80;;;32.00;99.90;;;;;;6209213;23;20437;-74
2023/08/17 12:55:21;;;;;;;13.13;11.93;;;32.00;99.90;;;;;;6208784;23;20009;-74
2023/08/17 12:57:48;;;;;;;11.73;10.73;;;32.00;99.90;;;;;;6209788;23;20017;-74
2023/08/17 13:00:14;;;;;;;13.73;12.50;;;32.00;99.90;;;;;;6208379;23;20023;-74
2023/08/17 13:02:40;;;;;;;12.88;11.82;;;32.10;99.90;;;;;;6209852;23;20012;-74
2023/08/17 13:05:05;;;;;;;12.13;11.02;;;32.10;99.90;;;;;;6208323;23;20368;-74
2023/08/17 13:07:31;;;;;;;13.38;12.07;;;32.20;99.90;;;;;;6209674;23;20497;-74
2023/08/17 13:09:57;;;;;;;15.52;12.20;;;32.30;99.90;;;;;;6208268;23;20001;-74
2023/08/17 13:12:22;;;;;;;14.20;12.85;;;32.30;99.90;;;;;;6208828;23;20027;-74
2023/08/17 13:14:48;;;;;;;15.55;12.10;;;32.30;99.90;;;;;;6209649;23;20001;-74
2023/08/17 13:17:16;;;;;;;12.85;11.50;;;32.40;99.90;;;;;;6208639;23;20079;-74
2023/08/17 13:19:42;;;;;;;13.52;12.23;;;32.50;99.90;;;;;;6209478;23;20256;-74
2023/08/17 13:22:10;;;;;;;18.02;12.98;;;32.50;99.90;;;;;;6208583;23;20340;-75
2023/08/17 13:24:35;;;;;;;14.52;13.05;;;32.40;99.90;;;;;;6208701;23;20075;-74
2023/08/17 13:27:01;;;;;;;17.23;12.85;;;32.40;99.90;;;;;;6209158;23;20055;-74
2023/08/17 13:29:27;;;;;;;14.48;11.75;;;32.40;99.90;;;;;;6208208;23;20001;-74
2023/08/17 13:31:52;;;;;;;15.32;12.68;;;32.40;99.90;;;;;;6208015;23;20009;-74
2023/08/17 13:34:18;;;;;;;15.65;12.38;;;32.50;99.90;;;;;;6207914;23;20440;-74
2023/08/17 13:36:44;;;;;;;14.35;12.82;;;32.40;99.90;;;;;;6208997;23;20004;-74
2023/08/17 13:39:10;;;;;;;13.75;11.88;;;32.30;99.90;;;;;;6209449;23;20098;-73
2023/08/17 13:41:35;;;;;;;13.00;11.82;;;32.50;99.90;;;;;;6208362;23;20314;-74
2023/08/17 13:44:02;;;;;;;13.48;11.85;;;32.50;99.90;;;;;;6209281;23;20062;-74
2023/08/17 13:46:27;;;;;;;14.10;12.15;;;32.50;99.90;;;;;;6208230;23;20365;-74
2023/08/17 13:48:54;;;;;;;13.05;11.90;;;32.50;99.90;;;;;;6208765;23;20012;-74
2023/08/17 13:51:19;;;;;;;12.13;10.93;;;32.50;99.90;;;;;;6208959;23;20001;-74
2023/08/17 13:53:45;;;;;;;14.65;11.23;;;32.40;99.90;;;;;;6206751;23;20001;-74
2023/08/17 13:56:11;;;;;;;11.93;10.75;;;32.40;99.90;;;;;;6208636;23;20080;-74
2023/08/17 13:58:37;;;;;;;10.85;10.00;;;32.40;99.90;;;;;;6207024;23;20004;-74
2023/08/17 14:01:02;;;;;;;10.68;9.68;;;32.30;99.90;;;;;;6207509;23;20007;-74
2023/08/17 14:03:28;;;;;;;11.32;10.20;;;32.20;99.90;;;;;;6207697;23;20503;-74
2023/08/17 14:05:54;;;;;;;11.23;10.32;;;32.10;99.90;;;;;;6207818;23;20008;-74
2023/08/17 14:08:20;;;;;;;11.68;10.32;;;32.10;99.90;;;;;;6208639;23;20039;-74
2023/08/17 14:10:46;;;;;;;11.02;10.00;;;32.10;99.90;;;;;;6208367;23;20000;-74
2023/08/17 14:13:12;;;;;;;11.85;10.68;;;32.10;99.90;;;;;;6207914;23;20012;-74
2023/08/17 14:15:37;;;;;;;11.63;10.57;;;32.00;99.90;;;;;;6208696;23;20005;-74
2023/08/17 14:18:03;;;;;;;12.68;11.40;;;32.10;99.90;;;;;;6208147;23;20186;-74
2023/08/17 14:20:29;;;;;;;13.18;11.50;;;32.00;99.90;;;;;;6207746;23;20001;-74
2023/08/17 14:22:55;;;;;;;10.95;10.05;;;31.90;99.90;;;;;;6208963;23;20190;-74
2023/08/17 14:25:21;;;;;;;10.05;9.25;;;31.90;99.90;;;;;;6207327;23;20440;-74
2023/08/17 14:27:47;;;;;;;10.32;9.32;;;31.90;99.90;;;;;;6207987;23;20043;-74
2023/08/17 14:30:13;;;;;;;16.25;9.13;;;31.90;99.90;;;;;;6206471;23;20349;-74
2023/08/17 14:32:38;;;;;;;9.45;8.65;;;31.80;99.90;;;;;;6208058;23;20019;-74
2023/08/17 14:35:04;;;;;;;8.98;8.13;;;31.80;99.90;;;;;;6208670;23;20032;-74
2023/08/17 14:37:30;;;;;;;9.13;8.43;;;31.70;99.90;;;;;;6207831;23;20008;-74
2023/08/17 14:39:55;;;;;;;8.80;8.07;;;31.70;99.90;;;;;;6207662;23;20432;-74
2023/08/17 14:42:23;;;;;;;9.00;8.20;;;31.60;99.90;;;;;;6209032;23;20130;-73
2023/08/17 14:44:51;;;;;;;9.38;8.65;;;31.60;99.90;;;;;;6207939;23;20007;-73
2023/08/17 14:47:17;;;;;;;12.90;8.73;;;31.50;99.80;;;;;;6206621;23;20004;-74
2023/08/17 14:49:43;;;;;;;13.30;9.40;;;31.60;99.90;;;;;;6208248;23;20008;-74
2023/08/17 14:52:08;;;;;;;11.88;8.95;;;31.50;99.90;;;;;;6207978;23;20030;-74
2023/08/17 14:54:34;;;;;;;9.95;8.65;;;31.50;99.90;;;;;;6208552;23;20032;-74
2023/08/17 14:57:00;;;;;;;10.05;8.70;;;31.50;99.90;;;;;;6207738;23;20070;-74
2023/08/17 14:59:25;;;;;;;14.32;8.98;;;31.40;99.90;;;;;;6208000;23;20028;-74
2023/08/17 15:01:52;;;;;;;9.32;8.43;;;31.40;99.90;;;;;;6207144;23;20015;-74
2023/08/17 15:04:18;;;;;;;14.80;9.25;;;31.30;99.90;;;;;;6207571;23;20539;-74
2023/08/17 15:06:43;;;;;;;9.10;7.55;;;31.30;99.90;;;;;;6206979;23;20032;-74
2023/08/17 15:09:09;;;;;;;9.45;8.25;;;31.30;99.30;;;;;;6207816;23;20008;-74
2023/08/17 15:11:35;;;;;;;9.07;8.35;;;31.20;99.20;;;;;;6207708;23;20000;-74
2023/08/17 15:14:01;;;;;;;8.55;7.78;;;31.20;99.70;;;;;;6208962;23;20016;-74
2023/08/17 15:16:27;;;;;;;7.35;6.65;;;31.20;99.40;;;;;;6207750;23;19997;-74
2023/08/17 15:18:53;;;;;;;8.63;6.40;;;31.20;97.70;;;;;;6208321;23;20021;-74
2023/08/17 15:21:19;;;;;;;7.97;7.22;;;31.20;97.60;;;;;;6206455;23;20483;-74
2023/08/17 15:23:45;;;;;;;11.80;8.10;;;31.20;99.90;;;;;;6208550;23;19997;-74
2023/08/17 15:26:10;;;;;;;10.43;8.32;;;31.20;99.90;;;;;;6210412;23;20012;-74
2023/08/17 15:28:36;;;;;;;15.38;9.20;;;31.10;99.90;;;;;;6209496;23;20019;-74
2023/08/17 15:31:08;;;;;;;10.20;8.85;;;31.10;99.90;;;;;;6210042;23;20000;-74
2023/08/17 15:33:34;;;;;;;10.63;9.00;;;31.10;99.90;;;;;;6210592;23;20452;-74
2023/08/17 15:36:00;;;;;;;12.43;9.40;;;31.00;99.90;;;;;;6209560;23;19997;-74
2023/08/17 15:38:27;;;;;;;12.10;9.52;;;30.90;99.90;;;;;;6210495;23;19997;-74
2023/08/17 15:40:52;;;;;;;13.88;9.60;;;30.90;99.90;;;;;;6209985;23;20079;-74
2023/08/17 15:43:18;;;;;;;13.45;10.10;;;30.90;99.90;;;;;;6210769;23;20039;-74
2023/08/17 15:45:44;;;;;;;19.58;9.65;;;30.90;99.90;;;;;;6209385;23;20087;-74
2023/08/17 15:48:09;;;;;;;11.68;9.65;;;30.90;99.90;;;;;;6210386;23;20043;-74
2023/08/17 15:50:35;;;;;;;11.52;10.30;;;30.90;99.90;;;;;;6209197;23;20557;-74
2023/08/17 15:53:03;;;;;;;10.52;9.30;;;30.90;99.90;;;;;;6210328;23;20036;-74
2023/08/17 15:55:28;;;;;;;12.45;9.05;;;30.90;99.90;;;;;;6208292;23;20004;-74
2023/08/17 15:57:57;;;;;;;10.75;9.75;;;30.90;99.90;;;;;;6209582;23;20023;-74
2023/08/17 16:00:22;;;;;;;12.13;9.20;;;30.90;99.90;;;;;;6209881;23;20084;-74
2023/08/17 16:02:48;;;;;;;11.32;10.32;;;30.90;99.90;;;;;;6209701;23;20032;-74
2023/08/17 16:05:14;;;;;;;15.13;10.15;;;30.90;99.90;;;;;;6209128;23;20001;-74
2023/08/17 16:07:39;;;;;;;14.55;9.23;;;30.80;99.90;;;;;;6208659;23;20432;-74
2023/08/17 16:10:05;;;;;;;12.23;9.27;;;30.80;99.90;;;;;;6209340;23;20311;-74
2023/08/17 16:12:31;;;;;;;10.98;9.60;;;30.80;99.90;;;;;;6209828;23;20051;-73
2023/08/17 16:14:57;;;;;;;12.45;9.63;;;30.80;99.90;;;;;;6209671;23;20306;-74
2023/08/17 16:17:22;;;;;;;11.00;9.20;;;30.80;99.90;;;;;;6208849;23;20092;-74
2023/08/17 16:19:48;;;;;;;15.35;9.75;;;30.70;99.90;;;;;;6210041;23;19996;-74
2023/08/17 16:22:14;;;;;;;12.23;9.13;;;30.70;99.90;;;;;;6207290;23;20488;-73
2023/08/17 16:24:42;;;;;;;10.40;9.32;;;30.70;99.90;;;;;;6209667;23;20027;-73
2023/08/17 16:27:08;;;;;;;12.73;9.43;;;30.60;99.90;;;;;;6209739;23;20017;-73
2023/08/17 16:29:34;;;;;;;10.02;9.13;;;30.60;99.90;;;;;;6208584;23;20083;-74
2023/08/17 16:32:04;;;;;;;11.52;10.60;;;30.50;99.90;;;;;;6210147;23;20012;-73
2023/08/17 16:34:31;;;;;;;11.52;10.13;;;30.40;99.90;;;;;;6208775;23;20055;-74
2023/08/17 16:36:57;;;;;;;10.98;10.07;;;30.40;99.90;;;;;;6209190;23;19997;-74
2023/08/17 16:39:22;;;;;;;12.85;10.15;;;30.40;99.90;;;;;;6211297;23;20011;-74
2023/08/17 16:41:48;;;;;;;11.00;10.07;;;30.30;99.90;;;;;;6214968;23;20437;-74
2023/08/17 16:44:14;;;;;;;12.88;9.63;;;30.30;99.90;;;;;;6214661;23;20425;-75
2023/08/17 16:46:39;;;;;;;12.85;10.75;;;30.20;99.90;;;;;;6213208;23;20036;-75
2023/08/17 16:49:06;;;;;;;10.25;9.32;;;30.10;99.90;;;;;;6214545;23;20011;-75
2023/08/17 16:51:31;;;;;;;10.73;9.68;;;30.10;99.90;;;;;;6213151;23;20348;-74
2023/08/17 16:53:58;;;;;;;16.80;9.35;;;30.00;99.90;;;;;;6214759;23;20007;-74
2023/08/17 16:56:24;;;;;;;11.50;10.35;;;30.00;99.90;;;;;;6214372;23;20079;-74
2023/08/17 16:58:50;;;;;;;10.50;9.45;;;29.90;99.90;;;;;;6214622;23;20024;-74
2023/08/17 17:01:16;;;;;;;11.93;9.82;;;29.90;99.90;;;;;;6212854;23;20011;-74
2023/08/17 17:03:42;;;;;;;11.55;10.27;;;29.80;99.90;;;;;;6214560;23;20341;-74
2023/08/17 17:06:08;;;;;;;12.93;9.60;;;29.80;99.90;;;;;;6214324;23;20009;-74
2023/08/17 17:08:33;;;;;;;14.55;9.65;;;29.70;99.90;;;;;;6214639;23;20436;-74
2023/08/17 17:10:59;;;;;;;11.25;9.90;;;29.80;99.90;;;;;;6213949;23;20004;-74
2023/08/17 17:13:25;;;;;;;14.60;10.38;;;29.70;99.90;;;;;;6214416;23;20371;-74
2023/08/17 17:15:50;;;;;;;17.73;9.80;;;29.70;99.90;;;;;;6214279;23;20333;-74
2023/08/17 17:18:16;;;;;;;11.00;10.02;;;29.70;99.90;;;;;;6214474;23;20329;-74
2023/08/17 17:20:41;;;;;;;12.20;10.73;;;29.60;99.90;;;;;;6214127;23;20001;-74
2023/08/17 17:23:07;;;;;;;11.10;10.05;;;29.60;99.90;;;;;;6214334;23;20007;-74
2023/08/17 17:25:33;;;;;;;13.45;11.02;;;29.50;99.90;;;;;;6212390;23;20015;-74
2023/08/17 17:27:59;;;;;;;17.88;11.77;;;29.40;99.90;;;;;;6214250;23;20392;-74
2023/08/17 17:30:24;;;;;;;10.48;9.57;;;29.30;99.90;;;;;;6212269;23;20012;-75
2023/08/17 17:32:50;;;;;;;10.85;9.88;;;29.20;99.90;;;;;;6214163;23;20054;-74
2023/08/17 17:35:16;;;;;;;10.52;9.73;;;29.10;99.90;;;;;;6213990;23;20054;-74
2023/08/17 17:37:41;;;;;;;10.95;10.05;;;29.00;99.90;;;;;;6213832;23;20069;-74
2023/08/17 17:40:08;;;;;;;13.40;10.07;;;28.90;99.90;;;;;;6212115;23;20008;-74
2023/08/17 17:42:34;;;;;;;10.45;9.65;;;28.80;99.90;;;;;;6214163;23;20011;-74
2023/08/17 17:45:00;;;;;;;11.57;10.68;;;28.80;99.90;;;;;;6212083;23;20421;-75
2023/08/17 17:47:26;;;;;;;11.68;9.75;;;28.60;99.90;;;;;;6212511;23;20326;-74
2023/08/17 17:49:52;;;;;;;13.93;10.40;;;28.50;99.90;;;;;;6213905;23;20260;-74
2023/08/17 17:52:18;;;;;;;10.98;9.90;;;28.50;99.90;;;;;;6212797;23;20011;-73
2023/08/17 17:54:44;;;;;;;11.35;10.35;;;28.50;99.90;;;;;;6214035;23;20005;-75
2023/08/17 17:57:09;;;;;;;10.93;10.05;;;28.40;99.90;;;;;;6214186;23;20429;-75
2023/08/17 17:59:35;;;;;;;11.73;10.60;;;28.40;99.90;;;;;;6214041;23;20032;-74
2023/08/17 18:02:01;;;;;;;15.13;10.60;;;28.30;99.90;;;;;;6214262;23;20062;-74
2023/08/17 18:04:27;;;;;;;12.13;10.38;;;28.20;99.90;;;;;;6213472;23;20004;-74
2023/08/17 18:06:53;;;;;;;11.88;10.30;;;28.20;99.90;;;;;;6214135;23;20076;-74
2023/08/17 18:09:21;;;;;;;11.93;10.77;;;28.00;99.90;;;;;;6213633;23;20463;-75
2023/08/17 18:11:46;;;;;;;15.88;10.50;;;28.00;99.90;;;;;;6212018;23;20375;-74
2023/08/17 18:14:13;;;;;;;11.63;10.48;;;28.00;99.90;;;;;;6213446;23;20028;-74
2023/08/17 18:16:39;;;;;;;16.48;11.07;;;27.90;99.90;;;;;;6212219;23;20001;-74
2023/08/17 18:19:05;;;;;;;13.30;10.20;;;27.80;99.90;;;;;;6211257;23;20008;-74
2023/08/17 18:21:31;;;;;;;13.90;10.88;;;27.80;99.90;;;;;;6211631;23;20028;-74
2023/08/17 18:24:00;;;;;;;11.63;10.52;;;27.80;99.90;;;;;;6212309;23;20095;-74
2023/08/17 18:26:26;;;;;;;13.82;10.15;;;27.70;99.90;;;;;;6211483;23;20005;-74
2023/08/17 18:28:53;;;;;;;10.60;9.73;;;27.70;99.90;;;;;;6213671;23;20008;-74
2023/08/17 18:31:19;;;;;;;12.48;10.82;;;27.60;99.90;;;;;;6213151;23;20000;-74
2023/08/17 18:33:45;;;;;;;11.75;10.43;;;27.60;99.90;;;;;;6212750;23;20005;-74
2023/08/17 18:36:10;;;;;;;11.13;9.90;;;27.50;99.90;;;;;;6213346;23;20005;-74
2023/08/17 18:38:36;;;;;;;12.20;9.98;;;27.40;99.90;;;;;;6212064;23;20039;-74
2023/08/17 18:41:07;;;;;;;11.98;10.32;;;27.40;99.90;;;;;;6213050;23;19996;-74
2023/08/17 18:43:33;;;;;;;12.55;9.93;;;27.40;99.90;;;;;;6213683;23;20005;-74
2023/08/17 18:45:59;;;;;;;11.55;10.30;;;27.40;99.90;;;;;;6213422;23;20371;-74
2023/08/17 18:48:24;;;;;;;13.63;10.20;;;27.40;99.90;;;;;;6213596;23;20005;-74
2023/08/17 18:50:50;;;;;;;11.35;10.15;;;27.40;99.90;;;;;;6213292;23;20329;-74
2023/08/17 18:53:16;;;;;;;11.23;10.20;;;27.40;99.90;;;;;;6213559;23;20142;-75
2023/08/17 18:55:41;;;;;;;11.75;10.57;;;27.30;99.90;;;;;;6212879;23;20003;-74
2023/08/17 18:58:07;;;;;;;12.00;10.55;;;27.40;99.90;;;;;;6213345;23;19996;-74
2023/08/17 19:00:33;;;;;;;12.45;10.57;;;27.30;99.90;;;;;;6212926;23;20026;-74
2023/08/17 19:02:58;;;;;;;11.55;10.38;;;27.30;99.90;;;;;;6213383;23;20009;-74
2023/08/17 19:05:24;;;;;;;13.48;12.07;;;27.30;99.90;;;;;;6213197;23;20406;-74
2023/08/17 19:07:50;;;;;;;12.32;11.23;;;27.10;99.90;;;;;;6212112;23;20009;-74
2023/08/17 19:10:16;;;;;;;15.32;11.40;;;27.10;99.90;;;;;;6211061;23;20004;-74
2023/08/17 19:12:41;;;;;;;12.07;10.95;;;27.10;99.90;;;;;;6213285;23;20005;-74
2023/08/17 19:15:08;;;;;;;12.18;10.73;;;27.10;99.90;;;;;;6212882;23;20000;-74
2023/08/17 19:17:33;;;;;;;12.20;11.07;;;27.00;99.90;;;;;;6211901;23;20004;-74
2023/08/17 19:19:59;;;;;;;16.65;11.02;;;27.00;99.90;;;;;;6213009;23;20039;-74
2023/08/17 19:22:24;;;;;;;11.77;10.73;;;27.00;99.90;;;;;;6213337;23;20004;-74
2023/08/17 19:24:50;;;;;;;11.32;10.25;;;27.00;99.90;;;;;;6212847;23;20448;-74
2023/08/17 19:27:16;;;;;;;11.98;10.82;;;26.90;99.90;;;;;;6211420;23;20111;-74
2023/08/17 19:29:45;;;;;;;11.48;10.48;;;26.90;99.90;;;;;;6213149;23;20009;-74
2023/08/17 19:32:11;;;;;;;11.77;10.68;;;26.90;99.90;;;;;;6211658;23;20462;-74
2023/08/17 19:34:37;;;;;;;11.88;10.75;;;26.80;99.90;;;;;;6212869;23;20071;-75
2023/08/17 19:37:02;;;;;;;12.00;10.77;;;26.80;99.90;;;;;;6213299;23;20424;-74
2023/08/17 19:39:28;;;;;;;11.63;9.50;;;26.80;99.90;;;;;;6212943;23;20000;-74
2023/08/17 19:41:57;;;;;;;11.32;10.20;;;26.80;99.90;;;;;;6213132;23;20011;-74
2023/08/17 19:44:23;;;;;;;13.38;10.93;;;26.70;99.90;;;;;;6211394;23;20009;-74
2023/08/17 19:46:49;;;;;;;11.63;10.60;;;26.80;99.90;;;;;;6213268;23;20027;-74
2023/08/17 19:49:15;;;;;;;17.73;11.25;;;26.70;99.90;;;;;;6212991;23;20072;-75
2023/08/17 19:51:40;;;;;;;12.13;11.02;;;26.70;99.90;;;;;;6213204;23;20016;-74
2023/08/17 19:54:06;;;;;;;12.63;11.38;;;26.60;99.90;;;;;;6212925;23;20005;-74
2023/08/17 19:56:32;;;;;;;13.73;11.70;;;26.60;99.90;;;;;;6212872;23;20001;-74
2023/08/17 19:58:57;;;;;;;14.23;11.35;;;26.60;99.90;;;;;;6213105;23;20425;-74
2023/08/17 20:01:25;;;;;;;14.63;11.43;;;26.60;99.90;;;;;;6212894;23;20004;-74
2023/08/17 20:03:53;;;;;;;13.25;12.07;;;26.60;99.90;;;;;;6210597;23;20000;-74
2023/08/17 20:06:21;;;;;;;13.77;12.45;;;26.50;99.90;;;;;;6210905;23;20341;-74
2023/08/17 20:08:47;;;;;;;13.05;11.73;;;26.60;99.90;;;;;;6214283;23;20440;-74
2023/08/17 20:11:12;;;;;;;13.20;12.02;;;26.60;99.90;;;;;;6214554;23;20015;-74
2023/08/17 20:13:38;;;;;;;12.85;11.63;;;26.60;99.90;;;;;;6214769;23;20388;-74
2023/08/17 20:16:04;;;;;;;13.30;12.10;;;26.60;99.90;;;;;;6214487;23;20001;-74
2023/08/17 20:18:33;;;;;;;13.07;11.90;;;26.60;99.90;;;;;;6214773;23;20004;-75
2023/08/17 20:21:02;;;;;;;13.73;12.25;;;26.50;99.90;;;;;;6214493;23;20047;-74
2023/08/17 20:23:27;;;;;;;15.68;11.63;;;26.50;99.90;;;;;;6215089;23;20001;-73
2023/08/17 20:25:54;;;;;;;12.20;11.02;;;26.50;99.90;;;;;;6214397;23;20001;-74
2023/08/17 20:28:20;;;;;;;15.15;12.18;;;26.50;99.90;;;;;;6214680;23;20094;-74
2023/08/17 20:30:46;;;;;;;13.82;12.55;;;26.30;99.90;;;;;;6214371;23;20001;-74
2023/08/17 20:33:12;;;;;;;13.40;12.30;;;26.20;99.90;;;;;;6214686;23;20000;-74
2023/08/17 20:35:41;;;;;;;13.07;11.85;;;26.30;99.90;;;;;;6214385;23;19997;-74
2023/08/17 20:38:08;;;;;;;13.68;12.38;;;26.30;99.90;;;;;;6214816;23;20001;-74
2023/08/17 20:40:34;;;;;;;13.25;11.95;;;26.30;99.90;;;;;;6214186;23;20342;-74
2023/08/17 20:43:00;;;;;;;17.00;12.25;;;26.30;99.90;;;;;;6213040;23;20354;-74
2023/08/17 20:45:25;;;;;;;13.93;12.50;;;26.30;99.90;;;;;;6214393;23;20083;-74
2023/08/17 20:47:51;;;;;;;13.75;12.32;;;26.30;99.90;;;;;;6214742;23;20440;-74
2023/08/17 20:50:18;;;;;;;14.43;13.20;;;26.30;99.90;;;;;;6212646;23;20031;-74
2023/08/17 20:52:44;;;;;;;14.45;13.05;;;26.40;99.90;;;;;;6214519;23;20004;-74
2023/08/17 20:55:10;;;;;;;13.32;12.23;;;26.30;99.90;;;;;;6214434;23;20035;-74
2023/08/17 20:57:36;;;;;;;14.18;12.77;;;26.30;99.90;;;;;;6212714;23;20000;-74
2023/08/17 21:00:04;;;;;;;14.45;12.95;;;26.40;99.90;;;;;;6214235;23;20001;-74
2023/08/17 21:02:32;;;;;;;13.20;12.10;;;26.30;99.90;;;;;;6213127;23;20008;-74
2023/08/17 21:04:58;;;;;;;14.90;13.48;;;26.30;99.90;;;;;;6214167;23;19997;-74
2023/08/17 21:07:24;;;;;;;19.83;13.18;;;26.30;99.90;;;;;;6212946;23;20059;-74
2023/08/17 21:09:49;;;;;;;14.27;13.05;;;26.30;99.90;;;;;;6214128;23;20011;-74
2023/08/17 21:12:15;;;;;;;19.75;13.60;;;26.40;99.90;;;;;;6214024;23;19996;-74
2023/08/17 21:14:44;;;;;;;15.02;13.48;;;26.30;99.90;;;;;;6214035;23;20131;-75
2023/08/17 21:17:09;;;;;;;14.65;13.10;;;26.20;99.90;;;;;;6214433;23;20027;-74
2023/08/17 21:19:35;;;;;;;15.60;13.90;;;26.20;99.90;;;;;;6211994;23;20032;-74
2023/08/17 21:22:01;;;;;;;15.40;13.80;;;26.20;99.90;;;;;;6212565;23;20360;-73
2023/08/17 21:24:26;;;;;;;15.27;13.43;;;26.20;99.90;;;;;;6214185;23;20004;-74
2023/08/17 21:26:52;;;;;;;14.43;13.23;;;26.20;99.90;;;;;;6213760;23;20013;-74
2023/08/17 21:29:18;;;;;;;14.85;13.43;;;26.20;99.90;;;;;;6213995;23;20032;-74
2023/08/17 21:31:46;;;;;;;14.43;13.00;;;26.30;99.90;;;;;;6213985;23;20083;-74
2023/08/17 21:34:12;;;;;;;15.05;13.50;;;26.30;99.90;;;;;;6213940;23;20032;-74
2023/08/17 21:36:37;;;;;;;13.82;12.52;;;26.30;99.90;;;;;;6214146;23;19996;-75
2023/08/17 21:39:03;;;;;;;11.68;10.57;;;26.40;99.90;;;;;;6213873;23;20035;-74
2023/08/17 21:41:29;;;;;;;8.63;7.10;;;26.40;99.90;;;;;;6213901;23;20004;-74
2023/08/17 21:43:54;;;;;;;10.32;7.35;;;26.40;99.90;;;;;;6214081;23;20000;-74
2023/08/17 21:46:20;;;;;;;8.65;6.82;;;26.40;99.90;;;;;;6212227;23;20005;-74
2023/08/17 21:48:46;;;;;;;9.40;8.70;;;26.40;99.90;;;;;;6212424;23;20018;-74
2023/08/17 21:51:11;;;;;;;17.08;9.27;;;26.40;99.90;;;;;;6212061;23;20012;-74
2023/08/17 21:53:37;;;;;;;15.05;9.02;;;26.50;99.90;;;;;;6213941;23;20007;-74